sensor_id;sensor_type;location;lat;lon;timestamp;P1;durP1;ratioP1;P2;durP2;ratioP2
24617;SDS011;12762;51.730;5.356;2023-05-10T00:01:55;33.17;;;16.73;;
24617;SDS011;12762;51.730;5.356;2023-05-10T00:04:22;36.17;;;17.10;;
24617;SDS011;12762;51.730;5.356;2023-05-10T00:06:59;41.73;;;18.10;;
24617;SDS011;12762;51.730;5.356;2023-05-10T00:09:26;37.30;;;17.87;;
24617;SDS011;12762;51.730;5.356;2023-05-10T00:11:53;34.50;;;17.83;;
24617;SDS011;12762;51.730;5.356;2023-05-10T00:14:20;40.23;;;18.70;;
24617;SDS011;12762;51.730;5.356;2023-05-10T00:16:47;41.17;;;19.17;;
24617;SDS011;12762;51.730;5.356;2023-05-10T00:19:14;39.77;;;18.73;;
24617;SDS011;12762;51.730;5.356;2023-05-10T00:21:41;39.77;;;18.93;;
24617;SDS011;12762;51.730;5.356;2023-05-10T00:24:08;39.23;;;18.33;;
24617;SDS011;12762;51.730;5.356;2023-05-10T00:26:34;38.13;;;19.30;;
24617;SDS011;12762;51.730;5.356;2023-05-10T00:29:01;35.70;;;17.63;;
24617;SDS011;12762;51.730;5.356;2023-05-10T00:31:33;34.83;;;18.03;;
24617;SDS011;12762;51.730;5.356;2023-05-10T00:34:00;34.83;;;18.03;;
24617;SDS011;12762;51.730;5.356;2023-05-10T00:36:27;35.83;;;18.03;;
24617;SDS011;12762;51.730;5.356;2023-05-10T00:38:54;37.63;;;18.67;;
24617;SDS011;12762;51.730;5.356;2023-05-10T00:41:21;35.53;;;17.27;;
24617;SDS011;12762;51.730;5.356;2023-05-10T00:43:48;34.07;;;17.30;;
24617;SDS011;12762;51.730;5.356;2023-05-10T00:46:15;35.70;;;17.23;;
24617;SDS011;12762;51.730;5.356;2023-05-10T00:48:43;29.37;;;15.77;;
24617;SDS011;12762;51.730;5.356;2023-05-10T00:51:10;41.33;;;16.43;;
24617;SDS011;12762;51.730;5.356;2023-05-10T00:53:37;40.27;;;18.03;;
24617;SDS011;12762;51.730;5.356;2023-05-10T00:56:04;33.77;;;16.30;;
24617;SDS011;12762;51.730;5.356;2023-05-10T00:58:36;36.37;;;17.43;;
24617;SDS011;12762;51.730;5.356;2023-05-10T01:01:03;36.10;;;17.43;;
24617;SDS011;12762;51.730;5.356;2023-05-10T01:03:32;31.83;;;16.83;;
24617;SDS011;12762;51.730;5.356;2023-05-10T01:05:59;39.90;;;18.87;;
24617;SDS011;12762;51.730;5.356;2023-05-10T01:08:27;40.73;;;19.27;;
24617;SDS011;12762;51.730;5.356;2023-05-10T01:10:54;41.37;;;18.53;;
24617;SDS011;12762;51.730;5.356;2023-05-10T01:13:37;42.63;;;20.03;;
24617;SDS011;12762;51.730;5.356;2023-05-10T01:16:09;43.60;;;20.57;;
24617;SDS011;12762;51.730;5.356;2023-05-10T01:18:38;40.50;;;20.30;;
24617;SDS011;12762;51.730;5.356;2023-05-10T01:21:14;43.50;;;20.57;;
24617;SDS011;12762;51.730;5.356;2023-05-10T01:32:24;45.93;;;21.07;;
24617;SDS011;12762;51.730;5.356;2023-05-10T01:35:03;46.17;;;21.27;;
24617;SDS011;12762;51.730;5.356;2023-05-10T01:37:45;45.70;;;20.83;;
24617;SDS011;12762;51.730;5.356;2023-05-10T01:40:26;47.27;;;21.90;;
24617;SDS011;12762;51.730;5.356;2023-05-10T01:43:21;45.10;;;21.27;;
24617;SDS011;12762;51.730;5.356;2023-05-10T01:46:05;45.70;;;21.97;;
24617;SDS011;12762;51.730;5.356;2023-05-10T01:48:41;47.97;;;21.87;;
24617;SDS011;12762;51.730;5.356;2023-05-10T01:51:16;51.97;;;22.23;;
24617;SDS011;12762;51.730;5.356;2023-05-10T01:53:49;52.67;;;21.97;;
24617;SDS011;12762;51.730;5.356;2023-05-10T01:56:23;46.70;;;20.03;;
24617;SDS011;12762;51.730;5.356;2023-05-10T01:58:52;47.40;;;20.17;;
24617;SDS011;12762;51.730;5.356;2023-05-10T02:01:20;47.53;;;21.37;;
24617;SDS011;12762;51.730;5.356;2023-05-10T02:03:51;47.47;;;19.43;;
24617;SDS011;12762;51.730;5.356;2023-05-10T02:06:19;53.00;;;20.47;;
24617;SDS011;12762;51.730;5.356;2023-05-10T02:08:48;47.53;;;18.50;;
24617;SDS011;12762;51.730;5.356;2023-05-10T02:11:16;48.43;;;19.70;;
24617;SDS011;12762;51.730;5.356;2023-05-10T02:13:44;51.90;;;20.70;;
24617;SDS011;12762;51.730;5.356;2023-05-10T02:16:16;51.67;;;18.43;;
24617;SDS011;12762;51.730;5.356;2023-05-10T02:18:45;47.63;;;19.50;;
24617;SDS011;12762;51.730;5.356;2023-05-10T02:21:13;43.83;;;19.37;;
24617;SDS011;12762;51.730;5.356;2023-05-10T02:23:42;45.03;;;19.80;;
24617;SDS011;12762;51.730;5.356;2023-05-10T02:26:10;52.83;;;20.47;;
24617;SDS011;12762;51.730;5.356;2023-05-10T02:28:38;49.57;;;20.63;;
24617;SDS011;12762;51.730;5.356;2023-05-10T02:31:06;51.67;;;20.93;;
24617;SDS011;12762;51.730;5.356;2023-05-10T02:33:37;51.83;;;20.97;;
24617;SDS011;12762;51.730;5.356;2023-05-10T02:36:07;51.77;;;21.57;;
24617;SDS011;12762;51.730;5.356;2023-05-10T02:38:35;49.57;;;21.30;;
24617;SDS011;12762;51.730;5.356;2023-05-10T02:41:05;50.70;;;21.27;;
24617;SDS011;12762;51.730;5.356;2023-05-10T02:43:35;51.90;;;20.87;;
24617;SDS011;12762;51.730;5.356;2023-05-10T02:46:05;47.73;;;21.13;;
24617;SDS011;12762;51.730;5.356;2023-05-10T02:48:36;55.27;;;22.47;;
24617;SDS011;12762;51.730;5.356;2023-05-10T02:51:05;53.30;;;24.07;;
24617;SDS011;12762;51.730;5.356;2023-05-10T02:53:34;58.97;;;24.77;;
24617;SDS011;12762;51.730;5.356;2023-05-10T02:56:05;54.67;;;24.33;;
24617;SDS011;12762;51.730;5.356;2023-05-10T02:58:35;58.47;;;26.67;;
24617;SDS011;12762;51.730;5.356;2023-05-10T03:01:02;62.57;;;27.40;;
24617;SDS011;12762;51.730;5.356;2023-05-10T03:03:30;60.60;;;26.03;;
24617;SDS011;12762;51.730;5.356;2023-05-10T03:05:56;62.87;;;26.80;;
24617;SDS011;12762;51.730;5.356;2023-05-10T03:08:24;57.07;;;25.13;;
24617;SDS011;12762;51.730;5.356;2023-05-10T03:11:38;61.73;;;27.37;;
24617;SDS011;12762;51.730;5.356;2023-05-10T03:16:32;64.47;;;26.97;;
24617;SDS011;12762;51.730;5.356;2023-05-10T03:19:45;59.00;;;27.97;;
24617;SDS011;12762;51.730;5.356;2023-05-10T03:22:10;55.67;;;26.60;;
24617;SDS011;12762;51.730;5.356;2023-05-10T03:24:39;53.00;;;26.37;;
24617;SDS011;12762;51.730;5.356;2023-05-10T03:27:08;56.67;;;26.57;;
24617;SDS011;12762;51.730;5.356;2023-05-10T03:29:35;56.80;;;26.00;;
24617;SDS011;12762;51.730;5.356;2023-05-10T03:32:03;57.50;;;26.70;;
24617;SDS011;12762;51.730;5.356;2023-05-10T03:34:30;56.47;;;25.80;;
24617;SDS011;12762;51.730;5.356;2023-05-10T03:37:00;59.70;;;28.07;;
24617;SDS011;12762;51.730;5.356;2023-05-10T03:39:26;54.53;;;25.87;;
24617;SDS011;12762;51.730;5.356;2023-05-10T03:41:53;57.77;;;26.33;;
24617;SDS011;12762;51.730;5.356;2023-05-10T03:44:20;57.43;;;27.37;;
24617;SDS011;12762;51.730;5.356;2023-05-10T03:46:47;52.17;;;26.40;;
24617;SDS011;12762;51.730;5.356;2023-05-10T03:49:14;52.80;;;25.70;;
24617;SDS011;12762;51.730;5.356;2023-05-10T03:51:41;57.07;;;25.40;;
24617;SDS011;12762;51.730;5.356;2023-05-10T03:54:08;56.37;;;25.17;;
24617;SDS011;12762;51.730;5.356;2023-05-10T03:56:34;51.93;;;25.20;;
24617;SDS011;12762;51.730;5.356;2023-05-10T03:59:02;53.07;;;26.23;;
24617;SDS011;12762;51.730;5.356;2023-05-10T04:01:33;52.53;;;25.33;;
24617;SDS011;12762;51.730;5.356;2023-05-10T04:04:01;53.53;;;25.57;;
24617;SDS011;12762;51.730;5.356;2023-05-10T04:06:28;54.80;;;25.67;;
24617;SDS011;12762;51.730;5.356;2023-05-10T04:08:55;50.53;;;24.57;;
24617;SDS011;12762;51.730;5.356;2023-05-10T04:11:21;52.10;;;25.43;;
24617;SDS011;12762;51.730;5.356;2023-05-10T04:13:48;61.27;;;25.37;;
24617;SDS011;12762;51.730;5.356;2023-05-10T04:16:15;50.90;;;23.50;;
24617;SDS011;12762;51.730;5.356;2023-05-10T04:18:42;52.23;;;23.87;;
24617;SDS011;12762;51.730;5.356;2023-05-10T04:21:12;50.87;;;25.40;;
24617;SDS011;12762;51.730;5.356;2023-05-10T04:23:39;51.43;;;25.73;;
24617;SDS011;12762;51.730;5.356;2023-05-10T04:26:06;56.67;;;25.67;;
24617;SDS011;12762;51.730;5.356;2023-05-10T04:28:36;54.43;;;24.90;;
24617;SDS011;12762;51.730;5.356;2023-05-10T04:31:07;53.20;;;25.47;;
24617;SDS011;12762;51.730;5.356;2023-05-10T04:33:35;53.40;;;26.40;;
24617;SDS011;12762;51.730;5.356;2023-05-10T04:36:06;56.20;;;25.90;;
24617;SDS011;12762;51.730;5.356;2023-05-10T04:38:33;59.90;;;26.00;;
24617;SDS011;12762;51.730;5.356;2023-05-10T04:41:09;59.33;;;27.13;;
24617;SDS011;12762;51.730;5.356;2023-05-10T04:43:37;58.67;;;27.13;;
24617;SDS011;12762;51.730;5.356;2023-05-10T04:46:05;53.83;;;25.67;;
24617;SDS011;12762;51.730;5.356;2023-05-10T04:48:33;53.43;;;26.60;;
24617;SDS011;12762;51.730;5.356;2023-05-10T04:51:00;53.50;;;25.80;;
24617;SDS011;12762;51.730;5.356;2023-05-10T04:53:31;53.40;;;25.30;;
24617;SDS011;12762;51.730;5.356;2023-05-10T04:55:58;51.33;;;24.40;;
24617;SDS011;12762;51.730;5.356;2023-05-10T04:58:24;52.47;;;24.70;;
24617;SDS011;12762;51.730;5.356;2023-05-10T05:00:52;52.87;;;24.97;;
24617;SDS011;12762;51.730;5.356;2023-05-10T05:03:19;55.57;;;26.57;;
24617;SDS011;12762;51.730;5.356;2023-05-10T05:05:46;54.00;;;25.13;;
24617;SDS011;12762;51.730;5.356;2023-05-10T05:08:12;56.53;;;26.40;;
24617;SDS011;12762;51.730;5.356;2023-05-10T05:10:39;57.30;;;26.10;;
24617;SDS011;12762;51.730;5.356;2023-05-10T05:13:06;57.03;;;25.87;;
24617;SDS011;12762;51.730;5.356;2023-05-10T05:15:33;61.47;;;25.43;;
24617;SDS011;12762;51.730;5.356;2023-05-10T05:18:00;57.10;;;26.17;;
24617;SDS011;12762;51.730;5.356;2023-05-10T05:20:26;56.17;;;25.10;;
24617;SDS011;12762;51.730;5.356;2023-05-10T05:22:53;64.90;;;28.13;;
24617;SDS011;12762;51.730;5.356;2023-05-10T05:25:21;54.30;;;26.63;;
24617;SDS011;12762;51.730;5.356;2023-05-10T05:27:47;57.70;;;25.23;;
24617;SDS011;12762;51.730;5.356;2023-05-10T05:30:14;54.33;;;25.97;;
24617;SDS011;12762;51.730;5.356;2023-05-10T05:32:41;56.70;;;25.43;;
24617;SDS011;12762;51.730;5.356;2023-05-10T05:35:11;57.47;;;25.57;;
24617;SDS011;12762;51.730;5.356;2023-05-10T05:37:38;51.20;;;23.57;;
24617;SDS011;12762;51.730;5.356;2023-05-10T05:40:05;54.50;;;25.53;;
24617;SDS011;12762;51.730;5.356;2023-05-10T05:42:32;50.70;;;24.20;;
24617;SDS011;12762;51.730;5.356;2023-05-10T05:44:59;51.40;;;23.17;;
24617;SDS011;12762;51.730;5.356;2023-05-10T05:47:26;48.50;;;22.73;;
24617;SDS011;12762;51.730;5.356;2023-05-10T05:49:53;54.37;;;23.40;;
24617;SDS011;12762;51.730;5.356;2023-05-10T05:52:20;53.70;;;23.40;;
24617;SDS011;12762;51.730;5.356;2023-05-10T05:54:47;48.17;;;22.57;;
24617;SDS011;12762;51.730;5.356;2023-05-10T05:57:17;43.87;;;21.97;;
24617;SDS011;12762;51.730;5.356;2023-05-10T05:59:43;46.80;;;22.73;;
24617;SDS011;12762;51.730;5.356;2023-05-10T06:02:10;48.60;;;23.03;;
24617;SDS011;12762;51.730;5.356;2023-05-10T06:04:37;44.77;;;22.37;;
24617;SDS011;12762;51.730;5.356;2023-05-10T06:07:04;44.93;;;21.53;;
24617;SDS011;12762;51.730;5.356;2023-05-10T06:09:33;45.90;;;21.73;;
24617;SDS011;12762;51.730;5.356;2023-05-10T06:12:01;44.93;;;21.77;;
24617;SDS011;12762;51.730;5.356;2023-05-10T06:14:27;51.30;;;22.13;;
24617;SDS011;12762;51.730;5.356;2023-05-10T06:16:54;44.73;;;21.93;;
24617;SDS011;12762;51.730;5.356;2023-05-10T06:19:21;42.63;;;21.43;;
24617;SDS011;12762;51.730;5.356;2023-05-10T06:21:49;42.50;;;20.70;;
24617;SDS011;12762;51.730;5.356;2023-05-10T06:24:18;51.80;;;22.57;;
24617;SDS011;12762;51.730;5.356;2023-05-10T06:26:46;45.47;;;22.67;;
24617;SDS011;12762;51.730;5.356;2023-05-10T06:29:15;49.07;;;22.67;;
24617;SDS011;12762;51.730;5.356;2023-05-10T06:31:42;48.80;;;21.93;;
24617;SDS011;12762;51.730;5.356;2023-05-10T06:34:09;48.53;;;22.77;;
24617;SDS011;12762;51.730;5.356;2023-05-10T06:36:37;45.40;;;22.93;;
24617;SDS011;12762;51.730;5.356;2023-05-10T06:39:04;49.40;;;23.60;;
24617;SDS011;12762;51.730;5.356;2023-05-10T06:41:31;56.43;;;23.53;;
24617;SDS011;12762;51.730;5.356;2023-05-10T06:43:58;48.70;;;21.53;;
24617;SDS011;12762;51.730;5.356;2023-05-10T06:46:25;55.93;;;24.37;;
24617;SDS011;12762;51.730;5.356;2023-05-10T06:48:52;47.33;;;23.43;;
24617;SDS011;12762;51.730;5.356;2023-05-10T06:51:19;49.00;;;24.93;;
24617;SDS011;12762;51.730;5.356;2023-05-10T06:53:52;57.87;;;26.13;;
24617;SDS011;12762;51.730;5.356;2023-05-10T06:56:19;49.77;;;25.40;;
24617;SDS011;12762;51.730;5.356;2023-05-10T06:59:04;56.83;;;28.20;;
24617;SDS011;12762;51.730;5.356;2023-05-10T07:01:31;50.93;;;27.30;;
24617;SDS011;12762;51.730;5.356;2023-05-10T07:03:57;55.17;;;27.57;;
24617;SDS011;12762;51.730;5.356;2023-05-10T07:06:24;53.57;;;27.63;;
24617;SDS011;12762;51.730;5.356;2023-05-10T07:08:59;53.27;;;26.30;;
24617;SDS011;12762;51.730;5.356;2023-05-10T07:11:26;50.33;;;25.47;;
24617;SDS011;12762;51.730;5.356;2023-05-10T07:13:53;55.30;;;25.97;;
24617;SDS011;12762;51.730;5.356;2023-05-10T07:16:20;55.37;;;25.87;;
24617;SDS011;12762;51.730;5.356;2023-05-10T07:18:50;58.33;;;27.53;;
24617;SDS011;12762;51.730;5.356;2023-05-10T07:21:19;55.10;;;24.90;;
24617;SDS011;12762;51.730;5.356;2023-05-10T07:23:46;56.47;;;26.20;;
24617;SDS011;12762;51.730;5.356;2023-05-10T07:26:13;48.80;;;24.30;;
24617;SDS011;12762;51.730;5.356;2023-05-10T07:28:41;52.87;;;24.07;;
24617;SDS011;12762;51.730;5.356;2023-05-10T07:31:08;51.83;;;24.13;;
24617;SDS011;12762;51.730;5.356;2023-05-10T07:33:37;58.73;;;25.57;;
24617;SDS011;12762;51.730;5.356;2023-05-10T07:36:07;57.93;;;26.13;;
24617;SDS011;12762;51.730;5.356;2023-05-10T07:38:37;61.67;;;26.33;;
24617;SDS011;12762;51.730;5.356;2023-05-10T07:41:06;51.50;;;25.03;;
24617;SDS011;12762;51.730;5.356;2023-05-10T07:43:33;49.67;;;24.87;;
24617;SDS011;12762;51.730;5.356;2023-05-10T07:45:59;51.60;;;25.87;;
24617;SDS011;12762;51.730;5.356;2023-05-10T07:48:27;46.20;;;22.60;;
24617;SDS011;12762;51.730;5.356;2023-05-10T07:50:54;43.30;;;22.83;;
24617;SDS011;12762;51.730;5.356;2023-05-10T07:53:20;49.13;;;25.07;;
24617;SDS011;12762;51.730;5.356;2023-05-10T07:55:51;49.23;;;24.73;;
24617;SDS011;12762;51.730;5.356;2023-05-10T07:58:20;48.50;;;24.53;;
24617;SDS011;12762;51.730;5.356;2023-05-10T08:00:47;45.63;;;24.33;;
24617;SDS011;12762;51.730;5.356;2023-05-10T08:03:15;43.67;;;23.43;;
24617;SDS011;12762;51.730;5.356;2023-05-10T08:05:42;39.73;;;22.83;;
24617;SDS011;12762;51.730;5.356;2023-05-10T08:08:09;41.77;;;23.53;;
24617;SDS011;12762;51.730;5.356;2023-05-10T08:10:36;37.57;;;21.90;;
24617;SDS011;12762;51.730;5.356;2023-05-10T08:13:03;42.70;;;23.53;;
24617;SDS011;12762;51.730;5.356;2023-05-10T08:15:30;37.20;;;22.43;;
24617;SDS011;12762;51.730;5.356;2023-05-10T08:17:56;39.73;;;22.73;;
24617;SDS011;12762;51.730;5.356;2023-05-10T08:20:24;40.07;;;24.07;;
24617;SDS011;12762;51.730;5.356;2023-05-10T08:22:51;40.80;;;22.77;;
24617;SDS011;12762;51.730;5.356;2023-05-10T08:25:17;44.90;;;23.93;;
24617;SDS011;12762;51.730;5.356;2023-05-10T08:27:45;43.47;;;24.80;;
24617;SDS011;12762;51.730;5.356;2023-05-10T08:30:12;46.87;;;24.60;;
24617;SDS011;12762;51.730;5.356;2023-05-10T08:32:39;40.07;;;22.17;;
24617;SDS011;12762;51.730;5.356;2023-05-10T08:35:06;36.97;;;20.77;;
24617;SDS011;12762;51.730;5.356;2023-05-10T08:37:33;43.17;;;21.40;;
24617;SDS011;12762;51.730;5.356;2023-05-10T08:40:00;36.93;;;19.93;;
24617;SDS011;12762;51.730;5.356;2023-05-10T08:42:28;34.27;;;19.67;;
24617;SDS011;12762;51.730;5.356;2023-05-10T08:44:57;33.03;;;19.37;;
24617;SDS011;12762;51.730;5.356;2023-05-10T08:47:25;33.40;;;17.63;;
24617;SDS011;12762;51.730;5.356;2023-05-10T08:49:52;32.03;;;18.70;;
24617;SDS011;12762;51.730;5.356;2023-05-10T08:52:20;37.20;;;18.57;;
24617;SDS011;12762;51.730;5.356;2023-05-10T08:54:49;33.77;;;18.83;;
24617;SDS011;12762;51.730;5.356;2023-05-10T08:57:16;33.40;;;19.40;;
24617;SDS011;12762;51.730;5.356;2023-05-10T08:59:46;31.70;;;18.70;;
24617;SDS011;12762;51.730;5.356;2023-05-10T09:02:13;31.87;;;19.37;;
24617;SDS011;12762;51.730;5.356;2023-05-10T09:04:43;35.17;;;20.17;;
24617;SDS011;12762;51.730;5.356;2023-05-10T09:07:10;33.53;;;19.33;;
24617;SDS011;12762;51.730;5.356;2023-05-10T09:09:38;32.87;;;19.70;;
24617;SDS011;12762;51.730;5.356;2023-05-10T09:12:05;38.23;;;19.73;;
24617;SDS011;12762;51.730;5.356;2023-05-10T09:14:33;28.50;;;16.50;;
24617;SDS011;12762;51.730;5.356;2023-05-10T09:17:02;21.63;;;12.07;;
24617;SDS011;12762;51.730;5.356;2023-05-10T09:19:29;18.80;;;11.67;;
24617;SDS011;12762;51.730;5.356;2023-05-10T09:21:56;18.63;;;11.53;;
24617;SDS011;12762;51.730;5.356;2023-05-10T09:24:25;17.53;;;11.20;;
24617;SDS011;12762;51.730;5.356;2023-05-10T09:26:56;16.33;;;10.07;;
24617;SDS011;12762;51.730;5.356;2023-05-10T09:29:24;13.97;;;8.60;;
24617;SDS011;12762;51.730;5.356;2023-05-10T09:31:51;15.07;;;9.00;;
24617;SDS011;12762;51.730;5.356;2023-05-10T09:34:27;16.30;;;10.03;;
24617;SDS011;12762;51.730;5.356;2023-05-10T09:36:56;14.77;;;7.90;;
24617;SDS011;12762;51.730;5.356;2023-05-10T09:39:30;14.30;;;9.13;;
24617;SDS011;12762;51.730;5.356;2023-05-10T09:42:02;14.07;;;7.80;;
24617;SDS011;12762;51.730;5.356;2023-05-10T09:44:34;13.23;;;8.37;;
24617;SDS011;12762;51.730;5.356;2023-05-10T09:47:02;14.63;;;8.73;;
24617;SDS011;12762;51.730;5.356;2023-05-10T09:49:34;11.27;;;7.03;;
24617;SDS011;12762;51.730;5.356;2023-05-10T09:52:05;11.50;;;6.10;;
24617;SDS011;12762;51.730;5.356;2023-05-10T09:54:34;13.33;;;6.60;;
24617;SDS011;12762;51.730;5.356;2023-05-10T09:57:01;11.37;;;6.83;;
24617;SDS011;12762;51.730;5.356;2023-05-10T09:59:28;11.67;;;6.80;;
24617;SDS011;12762;51.730;5.356;2023-05-10T10:01:57;11.80;;;6.63;;
24617;SDS011;12762;51.730;5.356;2023-05-10T10:04:26;10.33;;;6.33;;
24617;SDS011;12762;51.730;5.356;2023-05-10T10:07:00;13.30;;;6.83;;
24617;SDS011;12762;51.730;5.356;2023-05-10T10:09:34;9.67;;;6.23;;
24617;SDS011;12762;51.730;5.356;2023-05-10T10:12:01;10.17;;;6.73;;
24617;SDS011;12762;51.730;5.356;2023-05-10T10:14:29;12.00;;;6.10;;
24617;SDS011;12762;51.730;5.356;2023-05-10T10:16:57;10.23;;;6.33;;
24617;SDS011;12762;51.730;5.356;2023-05-10T10:19:29;10.27;;;5.93;;
24617;SDS011;12762;51.730;5.356;2023-05-10T10:21:59;10.93;;;6.20;;
24617;SDS011;12762;51.730;5.356;2023-05-10T10:24:26;9.13;;;5.70;;
24617;SDS011;12762;51.730;5.356;2023-05-10T10:26:54;9.83;;;5.80;;
24617;SDS011;12762;51.730;5.356;2023-05-10T10:29:34;10.10;;;5.83;;
24617;SDS011;12762;51.730;5.356;2023-05-10T10:32:12;10.87;;;6.30;;
24617;SDS011;12762;51.730;5.356;2023-05-10T10:35:03;10.13;;;5.90;;
24617;SDS011;12762;51.730;5.356;2023-05-10T10:37:43;10.17;;;6.23;;
24617;SDS011;12762;51.730;5.356;2023-05-10T10:40:24;11.20;;;5.90;;
24617;SDS011;12762;51.730;5.356;2023-05-10T10:42:58;9.90;;;6.30;;
24617;SDS011;12762;51.730;5.356;2023-05-10T10:45:47;10.67;;;6.57;;
24617;SDS011;12762;51.730;5.356;2023-05-10T10:48:33;11.10;;;6.90;;
24617;SDS011;12762;51.730;5.356;2023-05-10T10:51:00;11.97;;;7.47;;
24617;SDS011;12762;51.730;5.356;2023-05-10T10:53:27;15.30;;;7.37;;
24617;SDS011;12762;51.730;5.356;2023-05-10T10:56:05;10.97;;;7.53;;
24617;SDS011;12762;51.730;5.356;2023-05-10T10:58:37;13.17;;;7.40;;
24617;SDS011;12762;51.730;5.356;2023-05-10T11:01:10;14.73;;;7.57;;
24617;SDS011;12762;51.730;5.356;2023-05-10T11:03:39;11.10;;;6.43;;
24617;SDS011;12762;51.730;5.356;2023-05-10T11:06:06;11.60;;;7.10;;
24617;SDS011;12762;51.730;5.356;2023-05-10T11:08:39;11.10;;;6.30;;
24617;SDS011;12762;51.730;5.356;2023-05-10T11:11:13;13.03;;;6.87;;
24617;SDS011;12762;51.730;5.356;2023-05-10T11:13:44;14.80;;;7.40;;
24617;SDS011;12762;51.730;5.356;2023-05-10T11:21:20;13.90;;;7.90;;
24617;SDS011;12762;51.730;5.356;2023-05-10T11:26:15;10.93;;;7.33;;
24617;SDS011;12762;51.730;5.356;2023-05-10T11:28:43;15.50;;;7.70;;
24617;SDS011;12762;51.730;5.356;2023-05-10T11:31:15;12.93;;;8.40;;
24617;SDS011;12762;51.730;5.356;2023-05-10T11:33:45;12.83;;;7.77;;
24617;SDS011;12762;51.730;5.356;2023-05-10T11:36:15;12.00;;;8.00;;
24617;SDS011;12762;51.730;5.356;2023-05-10T11:38:46;10.27;;;7.50;;
24617;SDS011;12762;51.730;5.356;2023-05-10T11:41:14;11.23;;;7.70;;
24617;SDS011;12762;51.730;5.356;2023-05-10T11:43:43;10.17;;;8.03;;
24617;SDS011;12762;51.730;5.356;2023-05-10T11:46:12;11.73;;;8.13;;
24617;SDS011;12762;51.730;5.356;2023-05-10T11:48:46;10.27;;;7.43;;
24617;SDS011;12762;51.730;5.356;2023-05-10T11:51:23;10.50;;;7.30;;
24617;SDS011;12762;51.730;5.356;2023-05-10T11:53:52;13.17;;;8.63;;
24617;SDS011;12762;51.730;5.356;2023-05-10T11:56:21;13.50;;;7.47;;
24617;SDS011;12762;51.730;5.356;2023-05-10T11:58:53;10.60;;;7.63;;
24617;SDS011;12762;51.730;5.356;2023-05-10T12:01:22;12.20;;;7.47;;
24617;SDS011;12762;51.730;5.356;2023-05-10T12:03:54;11.20;;;7.23;;
24617;SDS011;12762;51.730;5.356;2023-05-10T12:06:31;10.43;;;8.03;;
24617;SDS011;12762;51.730;5.356;2023-05-10T12:09:05;13.87;;;8.23;;
24617;SDS011;12762;51.730;5.356;2023-05-10T12:11:36;11.03;;;7.27;;
24617;SDS011;12762;51.730;5.356;2023-05-10T12:14:09;10.87;;;7.50;;
24617;SDS011;12762;51.730;5.356;2023-05-10T12:16:36;10.77;;;7.10;;
24617;SDS011;12762;51.730;5.356;2023-05-10T12:19:03;10.50;;;6.60;;
24617;SDS011;12762;51.730;5.356;2023-05-10T12:21:32;9.10;;;7.13;;
24617;SDS011;12762;51.730;5.356;2023-05-10T12:24:00;11.87;;;7.33;;
24617;SDS011;12762;51.730;5.356;2023-05-10T12:26:30;11.70;;;7.30;;
24617;SDS011;12762;51.730;5.356;2023-05-10T12:29:13;11.67;;;7.13;;
24617;SDS011;12762;51.730;5.356;2023-05-10T12:31:57;10.13;;;7.07;;
24617;SDS011;12762;51.730;5.356;2023-05-10T12:36:59;9.27;;;6.37;;
24617;SDS011;12762;51.730;5.356;2023-05-10T12:39:37;11.60;;;7.43;;
24617;SDS011;12762;51.730;5.356;2023-05-10T12:42:06;8.87;;;6.17;;
24617;SDS011;12762;51.730;5.356;2023-05-10T12:44:33;9.47;;;4.83;;
24617;SDS011;12762;51.730;5.356;2023-05-10T12:47:00;9.60;;;4.97;;
24617;SDS011;12762;51.730;5.356;2023-05-10T12:49:26;5.90;;;4.10;;
24617;SDS011;12762;51.730;5.356;2023-05-10T12:51:53;6.60;;;4.10;;
24617;SDS011;12762;51.730;5.356;2023-05-10T12:54:20;6.70;;;3.97;;
24617;SDS011;12762;51.730;5.356;2023-05-10T12:56:47;8.40;;;4.20;;
24617;SDS011;12762;51.730;5.356;2023-05-10T12:59:14;6.30;;;3.90;;
24617;SDS011;12762;51.730;5.356;2023-05-10T13:01:41;8.00;;;4.70;;
24617;SDS011;12762;51.730;5.356;2023-05-10T13:04:08;8.90;;;4.93;;
24617;SDS011;12762;51.730;5.356;2023-05-10T13:06:35;10.70;;;5.43;;
24617;SDS011;12762;51.730;5.356;2023-05-10T13:09:02;6.00;;;4.73;;
24617;SDS011;12762;51.730;5.356;2023-05-10T13:11:29;7.63;;;4.97;;
24617;SDS011;12762;51.730;5.356;2023-05-10T13:13:56;6.50;;;4.70;;
24617;SDS011;12762;51.730;5.356;2023-05-10T13:16:23;7.03;;;5.40;;
24617;SDS011;12762;51.730;5.356;2023-05-10T13:18:55;7.73;;;5.07;;
24617;SDS011;12762;51.730;5.356;2023-05-10T13:21:22;6.70;;;5.30;;
24617;SDS011;12762;51.730;5.356;2023-05-10T13:23:53;5.47;;;4.80;;
24617;SDS011;12762;51.730;5.356;2023-05-10T13:26:20;6.03;;;5.40;;
24617;SDS011;12762;51.730;5.356;2023-05-10T13:28:47;6.20;;;5.03;;
24617;SDS011;12762;51.730;5.356;2023-05-10T13:31:15;6.00;;;5.03;;
24617;SDS011;12762;51.730;5.356;2023-05-10T13:33:42;8.13;;;5.90;;
24617;SDS011;12762;51.730;5.356;2023-05-10T13:36:11;7.23;;;5.70;;
24617;SDS011;12762;51.730;5.356;2023-05-10T13:38:38;9.37;;;6.00;;
24617;SDS011;12762;51.730;5.356;2023-05-10T13:41:05;7.23;;;5.63;;
24617;SDS011;12762;51.730;5.356;2023-05-10T13:43:32;9.83;;;6.33;;
24617;SDS011;12762;51.730;5.356;2023-05-10T13:46:03;9.73;;;6.57;;
24617;SDS011;12762;51.730;5.356;2023-05-10T13:48:30;7.93;;;6.83;;
24617;SDS011;12762;51.730;5.356;2023-05-10T13:50:57;7.97;;;7.17;;
24617;SDS011;12762;51.730;5.356;2023-05-10T13:53:23;9.77;;;7.60;;
24617;SDS011;12762;51.730;5.356;2023-05-10T13:55:50;10.40;;;7.73;;
24617;SDS011;12762;51.730;5.356;2023-05-10T13:58:17;11.07;;;7.93;;
24617;SDS011;12762;51.730;5.356;2023-05-10T14:00:44;9.70;;;8.03;;
24617;SDS011;12762;51.730;5.356;2023-05-10T14:03:11;12.60;;;9.23;;
24617;SDS011;12762;51.730;5.356;2023-05-10T14:05:38;13.63;;;10.10;;
24617;SDS011;12762;51.730;5.356;2023-05-10T14:08:05;14.00;;;10.50;;
24617;SDS011;12762;51.730;5.356;2023-05-10T14:10:35;14.77;;;10.40;;
24617;SDS011;12762;51.730;5.356;2023-05-10T14:13:02;13.90;;;10.70;;
24617;SDS011;12762;51.730;5.356;2023-05-10T14:15:29;13.23;;;9.80;;
24617;SDS011;12762;51.730;5.356;2023-05-10T14:17:56;14.97;;;11.83;;
24617;SDS011;12762;51.730;5.356;2023-05-10T14:20:23;14.13;;;11.33;;
24617;SDS011;12762;51.730;5.356;2023-05-10T14:22:50;16.87;;;12.30;;
24617;SDS011;12762;51.730;5.356;2023-05-10T14:25:20;16.07;;;12.00;;
24617;SDS011;12762;51.730;5.356;2023-05-10T14:27:46;14.83;;;11.93;;
24617;SDS011;12762;51.730;5.356;2023-05-10T14:30:14;14.97;;;11.50;;
24617;SDS011;12762;51.730;5.356;2023-05-10T14:32:41;15.27;;;11.97;;
24617;SDS011;12762;51.730;5.356;2023-05-10T14:35:08;18.63;;;13.33;;
24617;SDS011;12762;51.730;5.356;2023-05-10T14:37:38;15.73;;;11.97;;
24617;SDS011;12762;51.730;5.356;2023-05-10T14:40:07;15.33;;;11.47;;
24617;SDS011;12762;51.730;5.356;2023-05-10T14:42:35;15.73;;;11.97;;
24617;SDS011;12762;51.730;5.356;2023-05-10T14:45:05;15.30;;;11.17;;
24617;SDS011;12762;51.730;5.356;2023-05-10T14:47:33;15.03;;;12.23;;
24617;SDS011;12762;51.730;5.356;2023-05-10T14:50:00;15.30;;;11.57;;
24617;SDS011;12762;51.730;5.356;2023-05-10T14:52:27;15.63;;;12.73;;
24617;SDS011;12762;51.730;5.356;2023-05-10T14:54:53;17.23;;;13.27;;
24617;SDS011;12762;51.730;5.356;2023-05-10T14:57:20;18.70;;;13.93;;
24617;SDS011;12762;51.730;5.356;2023-05-10T14:59:47;16.47;;;13.67;;